createdAt,value
2022-08-02T00:02:25.276Z,19.00
2022-08-02T00:07:27.167Z,19.00
2022-08-02T00:12:28.924Z,18.80
2022-08-02T00:17:30.718Z,18.80
2022-08-02T00:22:32.637Z,18.70
2022-08-02T00:27:34.480Z,18.70
2022-08-02T00:32:36.261Z,18.60
2022-08-02T00:37:42.042Z,18.60
2022-08-02T00:42:44.257Z,18.70
2022-08-02T00:47:46.035Z,18.60
2022-08-02T00:52:47.817Z,18.60
2022-08-02T00:57:50.175Z,18.60
2022-08-02T01:02:51.996Z,18.60
2022-08-02T01:07:53.795Z,18.70
2022-08-02T01:12:55.614Z,18.70
2022-08-02T01:18:07.137Z,18.70
2022-08-02T01:23:27.418Z,18.70
2022-08-02T01:28:48.652Z,18.70
2022-08-02T01:34:18.906Z,18.70
2022-08-02T01:39:26.837Z,18.70
2022-08-02T01:44:36.713Z,18.60
2022-08-02T01:49:39.780Z,18.50
2022-08-02T01:54:44.070Z,18.60
2022-08-02T01:59:46.786Z,18.50
2022-08-02T02:04:50.278Z,18.60
2022-08-02T02:09:54.559Z,18.50
2022-08-02T02:14:57.153Z,18.60
2022-08-02T02:20:01.620Z,18.60
2022-08-02T02:25:06.510Z,18.60
2022-08-02T02:30:09.076Z,18.60
2022-08-02T02:35:12.523Z,18.60
2022-08-02T02:40:16.496Z,18.60
2022-08-02T02:45:20.049Z,18.50
2022-08-02T02:50:23.832Z,18.50
2022-08-02T02:55:27.292Z,18.40
2022-08-02T03:00:48.865Z,18.50
2022-08-02T03:05:50.734Z,18.40
2022-08-02T03:10:54.020Z,18.30
2022-08-02T03:15:56.873Z,18.30
2022-08-02T03:21:01.713Z,18.20
2022-08-02T03:26:03.748Z,18.20
2022-08-02T03:31:05.856Z,18.10
2022-08-02T03:36:13.588Z,18.00
2022-08-02T03:41:17.877Z,18.00
2022-08-02T03:46:22.606Z,17.90
2022-08-02T03:51:24.686Z,17.90
2022-08-02T03:56:26.582Z,17.90
2022-08-02T04:01:28.415Z,17.80
2022-08-02T04:06:30.211Z,17.80
2022-08-02T04:11:32.058Z,17.80
2022-08-02T04:16:40.897Z,17.80
2022-08-02T04:21:50.066Z,17.80
2022-08-02T04:26:57.878Z,17.90
2022-08-02T04:32:04.882Z,18.00
2022-08-02T04:37:07.026Z,18.10
2022-08-02T04:42:09.347Z,18.10
2022-08-02T04:47:11.376Z,18.00
2022-08-02T04:52:14.176Z,18.10
2022-08-02T04:57:34.557Z,18.10
2022-08-02T05:02:36.589Z,18.30
2022-08-02T05:07:38.506Z,18.30
2022-08-02T05:12:41.058Z,18.40
2022-08-02T05:17:47.736Z,18.40
2022-08-02T05:22:50.211Z,18.50
2022-08-02T05:27:51.978Z,18.60
2022-08-02T05:32:53.805Z,18.60
2022-08-02T05:37:55.577Z,18.60
2022-08-02T05:42:57.397Z,18.60
2022-08-02T05:48:00.230Z,18.60
2022-08-02T05:53:36.391Z,18.60
2022-08-02T05:58:56.228Z,18.70
2022-08-02T06:03:59.469Z,18.70
2022-08-02T06:09:06.683Z,18.90
2022-08-02T06:14:09.655Z,19.00
2022-08-02T06:19:14.850Z,19.10
2022-08-02T06:24:19.857Z,19.30
2022-08-02T06:29:23.011Z,19.50
2022-08-02T06:34:25.262Z,19.60
2022-08-02T06:39:44.725Z,19.70
2022-08-02T06:44:48.803Z,19.90
2022-08-02T06:49:54.220Z,20.10
2022-08-02T06:55:00.865Z,20.10
2022-08-02T07:00:09.558Z,20.10
2022-08-02T07:05:11.724Z,20.40
2022-08-02T07:10:14.838Z,20.60
2022-08-02T07:15:16.619Z,20.70
2022-08-02T07:20:18.449Z,20.90
2022-08-02T07:25:20.389Z,20.90
2022-08-02T07:30:22.125Z,21.10
2022-08-02T07:35:23.915Z,21.20
2022-08-02T07:40:30.715Z,21.40
2022-08-02T07:45:33.373Z,21.50
2022-08-02T07:50:38.123Z,21.70
2022-08-02T07:55:40.846Z,21.70
2022-08-02T08:00:44.268Z,21.70
2022-08-02T08:05:46.109Z,21.90
2022-08-02T08:10:49.102Z,21.80
2022-08-02T08:15:52.285Z,21.70
2022-08-02T08:20:54.568Z,21.70
2022-08-02T08:25:56.375Z,21.90
2022-08-02T08:30:58.271Z,22.10
2022-08-02T08:36:02.517Z,22.40
2022-08-02T08:41:04.688Z,22.50
2022-08-02T08:46:12.295Z,22.50
2022-08-02T08:51:19.230Z,22.60
2022-08-02T08:56:21.203Z,22.30
2022-08-02T09:01:23.501Z,22.30
2022-08-02T09:06:25.522Z,22.30
2022-08-02T09:11:27.325Z,22.60
2022-08-02T09:16:33.530Z,22.40
2022-08-02T09:21:37.390Z,22.50
2022-08-02T09:26:39.206Z,22.70
2022-08-02T09:31:49.688Z,22.90
2022-08-02T09:36:54.800Z,23.20
2022-08-02T09:42:10.691Z,23.40
2022-08-02T09:47:16.954Z,23.50
2022-08-02T09:52:43.126Z,23.70
2022-08-02T09:57:50.428Z,23.70
2022-08-02T10:03:08.661Z,23.90
2022-08-02T10:08:17.799Z,24.20
2022-08-02T10:13:22.321Z,24.40
2022-08-02T10:18:38.359Z,24.40
2022-08-02T10:23:46.658Z,24.60
2022-08-02T10:28:50.547Z,25.00
2022-08-02T10:33:57.205Z,25.20
2022-08-02T10:39:01.679Z,24.90
2022-08-02T10:44:04.006Z,24.60
2022-08-02T10:49:38.467Z,25.00
2022-08-02T10:54:56.434Z,25.20
2022-08-02T11:00:17.360Z,25.30
2022-08-02T11:05:42.911Z,25.20
2022-08-02T11:10:47.081Z,25.00
2022-08-02T11:16:11.868Z,24.90
2022-08-02T11:21:38.182Z,24.80
2022-08-02T11:26:47.094Z,24.90
2022-08-02T11:31:53.813Z,24.80
2022-08-02T11:37:02.209Z,24.60
2022-08-02T11:42:05.362Z,24.30
2022-08-02T11:47:11.978Z,24.60
2022-08-02T11:52:17.887Z,24.80
2022-08-02T11:57:26.040Z,24.80
2022-08-02T12:02:35.691Z,24.90
2022-08-02T12:07:46.239Z,25.00
2022-08-02T12:13:03.739Z,24.90
2022-08-02T12:18:35.941Z,25.10
2022-08-02T12:23:59.702Z,25.30
2022-08-02T12:29:03.912Z,25.60
2022-08-02T12:34:16.931Z,25.60
2022-08-02T12:39:18.726Z,25.80
2022-08-02T12:44:20.510Z,26.50
2022-08-02T12:49:22.301Z,26.80
2022-08-02T12:54:31.772Z,27.20
2022-08-02T12:59:38.445Z,27.30
2022-08-02T13:04:41.302Z,28.00
2022-08-02T13:09:47.598Z,28.30
2022-08-02T13:14:49.381Z,28.40
2022-08-02T13:19:51.932Z,29.10
2022-08-02T13:24:57.913Z,29.90
2022-08-02T13:30:01.423Z,29.50
2022-08-02T13:35:03.461Z,30.10
2022-08-02T13:40:21.025Z,30.20
2022-08-02T13:45:29.168Z,29.80
2022-08-02T13:50:38.023Z,31.80
2022-08-02T13:55:46.690Z,31.90
2022-08-02T14:00:54.931Z,32.50
2022-08-02T14:06:04.509Z,32.60
2022-08-02T14:11:12.852Z,33.40
2022-08-02T14:16:20.760Z,31.50
2022-08-02T14:21:26.376Z,30.80
2022-08-02T14:26:39.444Z,31.00
2022-08-02T14:31:47.688Z,32.50
2022-08-02T14:36:55.039Z,33.00
2022-08-02T14:42:02.809Z,32.90
2022-08-02T14:47:10.999Z,31.50
2022-08-02T14:52:19.939Z,32.30
2022-08-02T14:57:27.500Z,32.40
2022-08-02T15:02:36.206Z,32.30
2022-08-02T15:07:42.627Z,32.60
2022-08-02T15:12:51.730Z,31.70
2022-08-02T15:18:00.421Z,32.10
2022-08-02T15:23:09.062Z,32.10
2022-08-02T15:28:15.000Z,32.70
2022-08-02T15:33:22.947Z,31.90
2022-08-02T15:38:32.444Z,32.40
2022-08-02T15:43:40.981Z,30.90
2022-08-02T15:49:08.893Z,30.90
2022-08-02T15:54:15.905Z,31.40
2022-08-02T15:59:24.866Z,31.00
2022-08-02T16:04:33.728Z,30.50
2022-08-02T16:09:43.078Z,29.90
2022-08-02T16:14:51.911Z,29.40
2022-08-02T16:20:01.473Z,29.20
2022-08-02T16:25:10.881Z,29.50
2022-08-02T16:30:26.599Z,29.60
2022-08-02T16:35:38.104Z,28.80
2022-08-02T16:40:46.199Z,28.80
2022-08-02T16:45:54.633Z,28.60
2022-08-02T16:51:03.587Z,28.80
2022-08-02T16:56:13.089Z,28.90
2022-08-02T17:01:24.062Z,28.90
2022-08-02T17:06:35.494Z,28.80
2022-08-02T17:11:46.849Z,28.70
2022-08-02T17:16:54.478Z,28.50
2022-08-02T17:22:04.069Z,28.30
2022-08-02T17:27:15.850Z,28.20
2022-08-02T17:32:25.089Z,27.50
2022-08-02T17:37:41.646Z,27.20
2022-08-02T17:42:49.719Z,27.40
2022-08-02T17:48:05.185Z,27.50
2022-08-02T17:53:12.813Z,27.10
2022-08-02T17:58:21.643Z,26.90
2022-08-02T18:03:42.913Z,26.90
2022-08-02T18:08:50.949Z,26.70
2022-08-02T18:14:00.858Z,26.60
2022-08-02T18:19:16.933Z,26.40
2022-08-02T18:24:25.951Z,26.10
2022-08-02T18:29:38.703Z,25.80
2022-08-02T18:34:47.825Z,25.60
2022-08-02T18:39:57.128Z,25.60
2022-08-02T18:45:05.180Z,25.50
2022-08-02T18:50:14.121Z,25.40
2022-08-02T18:56:03.504Z,25.20
2022-08-02T19:00:54.257Z,25.00
2022-08-02T19:06:02.096Z,24.80
2022-08-02T19:11:10.457Z,24.60
2022-08-02T19:16:22.415Z,24.50
2022-08-02T19:22:17.438Z,24.20
2022-08-02T19:27:14.341Z,24.10
2022-08-02T19:32:41.922Z,24.00
2022-08-02T19:37:50.754Z,23.80
2022-08-02T19:44:27.117Z,23.60
2022-08-02T19:48:28.355Z,23.50
2022-08-02T19:53:47.520Z,23.30
2022-08-02T19:58:57.182Z,23.20
2022-08-02T20:04:06.777Z,23.10
2022-08-02T20:14:51.225Z,22.80
2022-08-02T20:19:59.651Z,22.80
2022-08-02T20:25:07.968Z,22.70
2022-08-02T20:30:16.236Z,22.60
2022-08-02T20:35:23.798Z,22.50
2022-08-02T20:40:36.605Z,22.50
2022-08-02T20:45:44.885Z,22.40
2022-08-02T20:50:57.124Z,22.30
2022-08-02T20:56:05.603Z,22.20
2022-08-02T21:01:15.966Z,22.20
2022-08-02T21:06:25.082Z,22.00
2022-08-02T21:11:36.046Z,21.90
2022-08-02T21:16:42.671Z,21.90
2022-08-02T21:21:52.107Z,21.80
2022-08-02T21:26:58.958Z,21.70
2022-08-02T21:32:06.970Z,21.60
2022-08-02T21:37:16.936Z,21.50
2022-08-02T21:42:25.772Z,21.40
2022-08-02T21:47:29.466Z,21.40
2022-08-02T21:52:34.799Z,21.30
2022-08-02T21:57:36.641Z,21.30
2022-08-02T22:02:38.485Z,21.30
2022-08-02T22:07:40.481Z,21.30
2022-08-02T22:12:47.567Z,21.40
2022-08-02T22:17:52.996Z,21.30
2022-08-02T22:23:01.870Z,21.30
2022-08-02T22:28:36.456Z,21.30
2022-08-02T22:34:00.953Z,21.20
2022-08-02T22:39:19.189Z,21.10
2022-08-02T22:44:21.614Z,21.10
2022-08-02T22:49:39.010Z,21.10
2022-08-02T22:54:45.290Z,21.00
2022-08-02T22:59:06.082Z,23.00
2022-08-02T22:59:47.126Z,21.10
2022-08-02T23:04:50.321Z,21.00
2022-08-02T23:09:52.188Z,20.90
2022-08-02T23:14:53.949Z,20.90
2022-08-02T23:19:55.844Z,20.80
2022-08-02T23:24:59.111Z,20.80
2022-08-02T23:30:02.247Z,20.90
2022-08-02T23:35:04.449Z,20.90
2022-08-02T23:40:07.113Z,20.90
2022-08-02T23:45:09.408Z,20.90
2022-08-02T23:50:11.221Z,20.90
2022-08-02T23:55:13.157Z,20.90
